Portada
METAR-TAF:

METAR-TAF

Aeroports :

St. Clair County International Airport

Port Huron, Michigan, Estats Units d'Amèrica

latitud: 42-55N, longitud: 082-32W, altitud: 198 m

Observació

L'informe es va fer fa 17 minuts, a les 23:15 UTC
Vent 3 kt del Sud-Est
Temperatura 13°C
Humitat 100%
Pressió 1019 hPa
Visibilitat: 4.0 km
Cel cobert a una alçada de 300 ft
boirina

METAR: KPHN 222315Z AUTO 13003KT 2 1/2SM BR OVC003 13/13 A3008 RMK AO2

Hora: 19:32 (23:32 UTC)


TAF: manca

Observacions i pronòstics meteorològics de més de 4000 aeroports (METAR i TAF).

Les estacions disponibles són els punts grocs i vermells al mapa.

Posi el ratolí al punt desitjat per veure el nom de l'estació.

Feu clic per veure les observacions i els pronòstics meteorològics.

Per canviar el mapa: feu clic els botons verds amb una creu de color negre per apropar; al botó verd amb un guió per allunyar la imatge; o en les fletxes verdes per a mapes adjacents.


METAR-TAF: